sensor_id;sensor_type;location;lat;lon;timestamp;P1;durP1;ratioP1;P2;durP2;ratioP2
54557;SDS011;40452;50.080;20.040;2023-03-18T05:21:48;9.73;;;4.53;;
54557;SDS011;40452;50.080;20.040;2023-03-18T05:24:14;14.10;;;6.97;;
54557;SDS011;40452;50.080;20.040;2023-03-18T05:26:39;12.18;;;6.07;;
54557;SDS011;40452;50.080;20.040;2023-03-18T05:29:05;10.45;;;6.18;;
54557;SDS011;40452;50.080;20.040;2023-03-18T05:31:30;11.65;;;6.32;;
54557;SDS011;40452;50.080;20.040;2023-03-18T05:33:56;11.35;;;5.32;;
54557;SDS011;40452;50.080;20.040;2023-03-18T05:36:21;12.23;;;5.80;;
54557;SDS011;40452;50.080;20.040;2023-03-18T05:38:47;11.38;;;6.20;;
54557;SDS011;40452;50.080;20.040;2023-03-18T05:41:12;11.93;;;6.03;;
54557;SDS011;40452;50.080;20.040;2023-03-18T05:43:38;11.52;;;5.65;;
54557;SDS011;40452;50.080;20.040;2023-03-18T05:46:04;12.80;;;5.80;;
54557;SDS011;40452;50.080;20.040;2023-03-18T05:48:29;13.65;;;6.28;;
54557;SDS011;40452;50.080;20.040;2023-03-18T05:50:56;13.30;;;6.00;;
54557;SDS011;40452;50.080;20.040;2023-03-18T05:53:22;12.75;;;5.82;;
54557;SDS011;40452;50.080;20.040;2023-03-18T05:55:48;10.75;;;5.93;;
54557;SDS011;40452;50.080;20.040;2023-03-18T05:58:13;12.98;;;6.03;;
54557;SDS011;40452;50.080;20.040;2023-03-18T06:00:39;17.48;;;6.32;;
54557;SDS011;40452;50.080;20.040;2023-03-18T06:03:05;15.77;;;6.65;;
54557;SDS011;40452;50.080;20.040;2023-03-18T06:05:31;13.52;;;6.43;;
54557;SDS011;40452;50.080;20.040;2023-03-18T06:07:56;13.65;;;6.07;;
54557;SDS011;40452;50.080;20.040;2023-03-18T06:10:22;11.75;;;5.60;;
54557;SDS011;40452;50.080;20.040;2023-03-18T06:12:49;13.93;;;5.97;;
54557;SDS011;40452;50.080;20.040;2023-03-18T06:15:15;14.60;;;5.93;;
54557;SDS011;40452;50.080;20.040;2023-03-18T06:17:41;14.60;;;6.00;;
54557;SDS011;40452;50.080;20.040;2023-03-18T06:20:11;11.70;;;5.60;;
54557;SDS011;40452;50.080;20.040;2023-03-18T06:22:38;14.80;;;6.00;;
54557;SDS011;40452;50.080;20.040;2023-03-18T06:25:04;13.35;;;5.55;;
54557;SDS011;40452;50.080;20.040;2023-03-18T06:27:32;15.55;;;5.90;;
54557;SDS011;40452;50.080;20.040;2023-03-18T06:29:58;13.00;;;4.95;;
54557;SDS011;40452;50.080;20.040;2023-03-18T06:32:27;13.55;;;6.30;;
54557;SDS011;40452;50.080;20.040;2023-03-18T06:34:53;13.85;;;5.65;;
54557;SDS011;40452;50.080;20.040;2023-03-18T06:37:19;12.07;;;5.43;;
54557;SDS011;40452;50.080;20.040;2023-03-18T06:39:45;11.45;;;5.07;;
54557;SDS011;40452;50.080;20.040;2023-03-18T06:42:11;12.68;;;4.68;;
54557;SDS011;40452;50.080;20.040;2023-03-18T06:44:37;11.00;;;5.05;;
54557;SDS011;40452;50.080;20.040;2023-03-18T06:47:05;12.07;;;5.22;;
54557;SDS011;40452;50.080;20.040;2023-03-18T06:49:32;10.80;;;4.50;;
54557;SDS011;40452;50.080;20.040;2023-03-18T06:51:58;11.27;;;4.90;;
54557;SDS011;40452;50.080;20.040;2023-03-18T06:54:24;10.23;;;4.47;;
54557;SDS011;40452;50.080;20.040;2023-03-18T06:56:50;11.18;;;4.82;;
54557;SDS011;40452;50.080;20.040;2023-03-18T06:59:16;12.93;;;4.90;;
54557;SDS011;40452;50.080;20.040;2023-03-18T07:01:43;12.00;;;5.35;;
54557;SDS011;40452;50.080;20.040;2023-03-18T07:04:11;10.15;;;5.18;;
54557;SDS011;40452;50.080;20.040;2023-03-18T07:06:36;11.75;;;5.18;;
54557;SDS011;40452;50.080;20.040;2023-03-18T07:09:02;8.30;;;4.32;;
54557;SDS011;40452;50.080;20.040;2023-03-18T07:11:28;13.55;;;4.75;;
54557;SDS011;40452;50.080;20.040;2023-03-18T07:13:54;9.15;;;4.35;;
54557;SDS011;40452;50.080;20.040;2023-03-18T07:16:19;10.43;;;4.57;;
54557;SDS011;40452;50.080;20.040;2023-03-18T07:18:45;8.75;;;4.93;;
54557;SDS011;40452;50.080;20.040;2023-03-18T07:21:10;13.73;;;4.38;;
54557;SDS011;40452;50.080;20.040;2023-03-18T07:23:37;13.43;;;4.53;;
54557;SDS011;40452;50.080;20.040;2023-03-18T07:26:03;13.27;;;4.35;;
54557;SDS011;40452;50.080;20.040;2023-03-18T07:28:29;10.30;;;4.35;;
54557;SDS011;40452;50.080;20.040;2023-03-18T07:30:54;8.98;;;4.07;;
54557;SDS011;40452;50.080;20.040;2023-03-18T07:33:20;9.43;;;4.25;;
54557;SDS011;40452;50.080;20.040;2023-03-18T07:35:45;8.70;;;4.18;;
54557;SDS011;40452;50.080;20.040;2023-03-18T07:38:12;9.10;;;4.00;;
54557;SDS011;40452;50.080;20.040;2023-03-18T07:40:38;7.18;;;3.92;;
54557;SDS011;40452;50.080;20.040;2023-03-18T07:43:04;9.13;;;4.28;;
54557;SDS011;40452;50.080;20.040;2023-03-18T07:45:30;7.68;;;3.72;;
54557;SDS011;40452;50.080;20.040;2023-03-18T07:47:56;6.32;;;3.60;;
54557;SDS011;40452;50.080;20.040;2023-03-18T07:50:22;7.55;;;4.03;;
54557;SDS011;40452;50.080;20.040;2023-03-18T07:52:47;8.63;;;3.78;;
54557;SDS011;40452;50.080;20.040;2023-03-18T07:55:13;7.53;;;3.80;;
54557;SDS011;40452;50.080;20.040;2023-03-18T07:57:39;8.52;;;3.92;;
54557;SDS011;40452;50.080;20.040;2023-03-18T08:00:06;8.13;;;3.92;;
54557;SDS011;40452;50.080;20.040;2023-03-18T08:02:36;6.63;;;3.70;;
54557;SDS011;40452;50.080;20.040;2023-03-18T08:05:02;6.18;;;3.28;;
54557;SDS011;40452;50.080;20.040;2023-03-18T08:07:31;9.00;;;3.40;;
54557;SDS011;40452;50.080;20.040;2023-03-18T08:09:57;6.25;;;3.60;;
54557;SDS011;40452;50.080;20.040;2023-03-18T08:12:23;7.10;;;3.30;;
54557;SDS011;40452;50.080;20.040;2023-03-18T08:14:52;11.35;;;4.63;;
54557;SDS011;40452;50.080;20.040;2023-03-18T08:17:21;7.13;;;3.58;;
54557;SDS011;40452;50.080;20.040;2023-03-18T08:19:47;8.82;;;4.43;;
54557;SDS011;40452;50.080;20.040;2023-03-18T08:22:13;7.82;;;4.30;;
54557;SDS011;40452;50.080;20.040;2023-03-18T08:24:39;6.68;;;4.10;;
54557;SDS011;40452;50.080;20.040;2023-03-18T08:27:05;7.53;;;4.15;;
54557;SDS011;40452;50.080;20.040;2023-03-18T08:29:34;8.50;;;4.40;;
54557;SDS011;40452;50.080;20.040;2023-03-18T08:32:00;9.35;;;5.10;;
54557;SDS011;40452;50.080;20.040;2023-03-18T08:34:26;9.88;;;5.57;;
54557;SDS011;40452;50.080;20.040;2023-03-18T08:36:52;9.50;;;5.85;;
54557;SDS011;40452;50.080;20.040;2023-03-18T08:39:17;9.00;;;5.40;;
54557;SDS011;40452;50.080;20.040;2023-03-18T08:41:44;11.60;;;5.57;;
54557;SDS011;40452;50.080;20.040;2023-03-18T08:44:09;11.68;;;5.47;;
54557;SDS011;40452;50.080;20.040;2023-03-18T08:46:36;9.00;;;5.32;;
54557;SDS011;40452;50.080;20.040;2023-03-18T08:49:02;8.93;;;4.93;;
54557;SDS011;40452;50.080;20.040;2023-03-18T08:51:28;9.80;;;5.15;;
54557;SDS011;40452;50.080;20.040;2023-03-18T08:53:53;8.70;;;5.10;;
54557;SDS011;40452;50.080;20.040;2023-03-18T08:56:22;8.77;;;4.85;;
54557;SDS011;40452;50.080;20.040;2023-03-18T08:58:48;10.93;;;5.13;;
54557;SDS011;40452;50.080;20.040;2023-03-18T09:01:15;10.13;;;4.80;;
54557;SDS011;40452;50.080;20.040;2023-03-18T09:03:41;7.50;;;4.65;;
54557;SDS011;40452;50.080;20.040;2023-03-18T09:06:08;9.05;;;5.22;;
54557;SDS011;40452;50.080;20.040;2023-03-18T09:08:34;9.13;;;4.63;;
54557;SDS011;40452;50.080;20.040;2023-03-18T09:11:00;7.95;;;4.70;;
54557;SDS011;40452;50.080;20.040;2023-03-18T09:13:26;7.90;;;4.95;;
54557;SDS011;40452;50.080;20.040;2023-03-18T09:15:51;7.97;;;4.63;;
54557;SDS011;40452;50.080;20.040;2023-03-18T09:18:18;10.02;;;5.03;;
54557;SDS011;40452;50.080;20.040;2023-03-18T09:20:44;7.07;;;4.35;;
54557;SDS011;40452;50.080;20.040;2023-03-18T09:23:10;8.73;;;4.10;;
54557;SDS011;40452;50.080;20.040;2023-03-18T09:25:38;6.63;;;4.20;;
54557;SDS011;40452;50.080;20.040;2023-03-18T09:28:04;7.93;;;4.20;;
54557;SDS011;40452;50.080;20.040;2023-03-18T09:30:30;8.02;;;4.70;;
54557;SDS011;40452;50.080;20.040;2023-03-18T09:32:56;8.68;;;5.47;;
54557;SDS011;40452;50.080;20.040;2023-03-18T09:35:22;10.68;;;6.45;;
54557;SDS011;40452;50.080;20.040;2023-03-18T09:37:48;12.43;;;6.95;;
54557;SDS011;40452;50.080;20.040;2023-03-18T09:40:15;12.65;;;6.88;;
54557;SDS011;40452;50.080;20.040;2023-03-18T09:43:06;11.48;;;7.00;;
54557;SDS011;40452;50.080;20.040;2023-03-18T09:46:20;13.63;;;7.97;;
54557;SDS011;40452;50.080;20.040;2023-03-18T09:57:48;15.75;;;9.45;;
54557;SDS011;40452;50.080;20.040;2023-03-18T10:00:35;15.05;;;9.70;;
54557;SDS011;40452;50.080;20.040;2023-03-18T10:03:06;15.80;;;10.02;;
54557;SDS011;40452;50.080;20.040;2023-03-18T10:08:47;19.55;;;10.77;;
54557;SDS011;40452;50.080;20.040;2023-03-18T10:16:37;16.20;;;9.93;;
54557;SDS011;40452;50.080;20.040;2023-03-18T10:19:28;19.00;;;10.20;;
54557;SDS011;40452;50.080;20.040;2023-03-18T10:24:49;14.57;;;9.45;;
54557;SDS011;40452;50.080;20.040;2023-03-18T10:27:52;16.55;;;10.27;;
54557;SDS011;40452;50.080;20.040;2023-03-18T10:33:52;17.17;;;10.50;;
54557;SDS011;40452;50.080;20.040;2023-03-18T10:36:50;17.27;;;10.35;;
54557;SDS011;40452;50.080;20.040;2023-03-18T10:39:29;16.85;;;10.50;;
54557;SDS011;40452;50.080;20.040;2023-03-18T10:41:57;16.25;;;9.93;;
54557;SDS011;40452;50.080;20.040;2023-03-18T10:44:47;17.88;;;10.52;;
54557;SDS011;40452;50.080;20.040;2023-03-18T10:47:21;17.35;;;10.88;;
54557;SDS011;40452;50.080;20.040;2023-03-18T10:52:46;18.27;;;10.80;;
54557;SDS011;40452;50.080;20.040;2023-03-18T10:55:38;18.15;;;11.07;;
54557;SDS011;40452;50.080;20.040;2023-03-18T10:58:26;18.55;;;11.10;;
54557;SDS011;40452;50.080;20.040;2023-03-18T11:00:53;16.90;;;10.63;;
54557;SDS011;40452;50.080;20.040;2023-03-18T11:03:21;17.23;;;11.15;;
54557;SDS011;40452;50.080;20.040;2023-03-18T11:05:50;16.73;;;10.00;;
54557;SDS011;40452;50.080;20.040;2023-03-18T11:08:29;18.13;;;10.13;;
54557;SDS011;40452;50.080;20.040;2023-03-18T11:11:13;16.40;;;9.93;;
54557;SDS011;40452;50.080;20.040;2023-03-18T11:13:52;16.33;;;10.47;;
54557;SDS011;40452;50.080;20.040;2023-03-18T11:22:00;19.85;;;12.82;;
54557;SDS011;40452;50.080;20.040;2023-03-18T11:24:34;22.98;;;14.30;;
54557;SDS011;40452;50.080;20.040;2023-03-18T11:27:10;24.88;;;13.55;;
54557;SDS011;40452;50.080;20.040;2023-03-18T11:29:56;23.95;;;14.48;;
54557;SDS011;40452;50.080;20.040;2023-03-18T11:32:27;22.95;;;13.18;;
54557;SDS011;40452;50.080;20.040;2023-03-18T11:34:59;23.33;;;12.70;;
54557;SDS011;40452;50.080;20.040;2023-03-18T11:37:30;21.13;;;12.52;;
54557;SDS011;40452;50.080;20.040;2023-03-18T11:40:26;22.75;;;13.70;;
54557;SDS011;40452;50.080;20.040;2023-03-18T11:42:56;21.67;;;12.85;;
54557;SDS011;40452;50.080;20.040;2023-03-18T11:48:13;21.60;;;12.63;;
54557;SDS011;40452;50.080;20.040;2023-03-18T11:50:59;19.90;;;11.85;;
54557;SDS011;40452;50.080;20.040;2023-03-18T12:02:11;17.52;;;11.43;;
54557;SDS011;40452;50.080;20.040;2023-03-18T12:11:07;17.50;;;10.63;;
54557;SDS011;40452;50.080;20.040;2023-03-18T12:13:59;16.67;;;10.38;;
54557;SDS011;40452;50.080;20.040;2023-03-18T12:19:26;16.90;;;10.60;;
54557;SDS011;40452;50.080;20.040;2023-03-18T12:33:27;16.25;;;9.95;;
54557;SDS011;40452;50.080;20.040;2023-03-18T12:38:53;14.13;;;9.52;;
54557;SDS011;40452;50.080;20.040;2023-03-18T12:42:00;14.03;;;8.90;;
54557;SDS011;40452;50.080;20.040;2023-03-18T12:44:49;13.07;;;8.73;;
54557;SDS011;40452;50.080;20.040;2023-03-18T12:50:23;13.07;;;8.20;;
54557;SDS011;40452;50.080;20.040;2023-03-18T12:53:16;14.18;;;8.82;;
54557;SDS011;40452;50.080;20.040;2023-03-18T12:55:52;16.20;;;8.85;;
54557;SDS011;40452;50.080;20.040;2023-03-18T13:01:03;13.05;;;8.05;;
54557;SDS011;40452;50.080;20.040;2023-03-18T13:04:07;13.45;;;8.25;;
54557;SDS011;40452;50.080;20.040;2023-03-18T13:09:13;12.32;;;8.02;;
54557;SDS011;40452;50.080;20.040;2023-03-18T13:12:19;14.70;;;7.75;;
54557;SDS011;40452;50.080;20.040;2023-03-18T13:15:04;13.73;;;8.00;;
54557;SDS011;40452;50.080;20.040;2023-03-18T13:20:28;14.85;;;7.80;;
54557;SDS011;40452;50.080;20.040;2023-03-18T13:23:08;12.17;;;7.47;;
54557;SDS011;40452;50.080;20.040;2023-03-18T13:26:05;12.30;;;7.15;;
54557;SDS011;40452;50.080;20.040;2023-03-18T13:28:45;11.52;;;6.82;;
54557;SDS011;40452;50.080;20.040;2023-03-18T13:37:12;11.63;;;7.70;;
54557;SDS011;40452;50.080;20.040;2023-03-18T13:42:49;16.45;;;8.70;;
54557;SDS011;40452;50.080;20.040;2023-03-18T13:45:31;12.20;;;7.97;;
54557;SDS011;40452;50.080;20.040;2023-03-18T13:48:04;19.90;;;8.55;;
54557;SDS011;40452;50.080;20.040;2023-03-18T13:50:36;12.45;;;8.05;;
54557;SDS011;40452;50.080;20.040;2023-03-18T13:53:04;12.50;;;7.85;;
54557;SDS011;40452;50.080;20.040;2023-03-18T13:55:45;11.82;;;7.70;;
54557;SDS011;40452;50.080;20.040;2023-03-18T14:14:03;10.75;;;7.03;;
54557;SDS011;40452;50.080;20.040;2023-03-18T14:19:05;15.48;;;7.80;;
54557;SDS011;40452;50.080;20.040;2023-03-18T14:21:45;11.82;;;7.05;;
54557;SDS011;40452;50.080;20.040;2023-03-18T14:29:38;10.40;;;6.82;;
54557;SDS011;40452;50.080;20.040;2023-03-18T14:32:50;11.18;;;7.45;;
54557;SDS011;40452;50.080;20.040;2023-03-18T14:40:20;11.27;;;6.97;;
54557;SDS011;40452;50.080;20.040;2023-03-18T14:45:24;12.68;;;6.82;;
54557;SDS011;40452;50.080;20.040;2023-03-18T14:47:57;10.85;;;6.45;;
54557;SDS011;40452;50.080;20.040;2023-03-18T14:50:27;9.93;;;6.43;;
54557;SDS011;40452;50.080;20.040;2023-03-18T14:55:41;9.98;;;6.45;;
54557;SDS011;40452;50.080;20.040;2023-03-18T14:58:14;9.50;;;5.97;;
54557;SDS011;40452;50.080;20.040;2023-03-18T15:00:44;12.13;;;6.05;;
54557;SDS011;40452;50.080;20.040;2023-03-18T15:03:29;11.20;;;6.13;;
54557;SDS011;40452;50.080;20.040;2023-03-18T15:05:57;7.93;;;5.63;;
54557;SDS011;40452;50.080;20.040;2023-03-18T15:08:28;9.55;;;5.55;;
54557;SDS011;40452;50.080;20.040;2023-03-18T15:10:56;12.23;;;6.32;;
54557;SDS011;40452;50.080;20.040;2023-03-18T15:13:23;8.23;;;5.70;;
54557;SDS011;40452;50.080;20.040;2023-03-18T15:15:51;10.25;;;6.20;;
54557;SDS011;40452;50.080;20.040;2023-03-18T15:18:24;12.55;;;6.30;;
54557;SDS011;40452;50.080;20.040;2023-03-18T15:20:54;11.10;;;6.53;;
54557;SDS011;40452;50.080;20.040;2023-03-18T15:25:56;12.18;;;6.47;;
54557;SDS011;40452;50.080;20.040;2023-03-18T15:28:27;11.27;;;6.70;;
54557;SDS011;40452;50.080;20.040;2023-03-18T15:30:54;11.10;;;6.75;;
54557;SDS011;40452;50.080;20.040;2023-03-18T15:33:22;11.25;;;6.85;;
54557;SDS011;40452;50.080;20.040;2023-03-18T15:35:56;15.82;;;7.47;;
54557;SDS011;40452;50.080;20.040;2023-03-18T15:38:29;14.13;;;8.20;;
54557;SDS011;40452;50.080;20.040;2023-03-18T15:41:05;16.48;;;9.07;;
54557;SDS011;40452;50.080;20.040;2023-03-18T15:43:38;19.73;;;9.00;;
54557;SDS011;40452;50.080;20.040;2023-03-18T15:46:15;16.60;;;8.98;;
54557;SDS011;40452;50.080;20.040;2023-03-18T15:48:43;23.23;;;9.40;;
54557;SDS011;40452;50.080;20.040;2023-03-18T15:51:22;20.02;;;10.27;;
54557;SDS011;40452;50.080;20.040;2023-03-18T15:53:52;22.70;;;10.13;;
54557;SDS011;40452;50.080;20.040;2023-03-18T15:56:24;23.15;;;10.48;;
54557;SDS011;40452;50.080;20.040;2023-03-18T15:59:04;23.48;;;11.27;;
54557;SDS011;40452;50.080;20.040;2023-03-18T16:01:37;21.27;;;10.13;;
54557;SDS011;40452;50.080;20.040;2023-03-18T16:04:05;19.70;;;10.57;;
54557;SDS011;40452;50.080;20.040;2023-03-18T16:06:34;25.70;;;10.48;;
54557;SDS011;40452;50.080;20.040;2023-03-18T16:12:03;18.85;;;9.88;;
54557;SDS011;40452;50.080;20.040;2023-03-18T16:14:43;18.75;;;9.43;;
54557;SDS011;40452;50.080;20.040;2023-03-18T16:17:12;18.52;;;10.25;;
54557;SDS011;40452;50.080;20.040;2023-03-18T16:19:39;20.77;;;10.57;;
54557;SDS011;40452;50.080;20.040;2023-03-18T16:22:05;17.80;;;9.43;;
54557;SDS011;40452;50.080;20.040;2023-03-18T16:24:31;19.92;;;9.75;;
54557;SDS011;40452;50.080;20.040;2023-03-18T16:26:56;15.27;;;8.85;;
54557;SDS011;40452;50.080;20.040;2023-03-18T16:29:26;18.80;;;9.50;;
54557;SDS011;40452;50.080;20.040;2023-03-18T16:31:55;18.08;;;9.10;;
54557;SDS011;40452;50.080;20.040;2023-03-18T16:34:21;19.67;;;9.25;;
54557;SDS011;40452;50.080;20.040;2023-03-18T16:36:46;19.00;;;9.18;;
54557;SDS011;40452;50.080;20.040;2023-03-18T16:39:32;20.00;;;9.30;;
54557;SDS011;40452;50.080;20.040;2023-03-18T16:41:59;21.05;;;10.38;;
54557;SDS011;40452;50.080;20.040;2023-03-18T16:44:26;21.45;;;8.98;;
54557;SDS011;40452;50.080;20.040;2023-03-18T16:46:52;18.98;;;9.10;;
54557;SDS011;40452;50.080;20.040;2023-03-18T16:49:21;18.25;;;8.77;;
54557;SDS011;40452;50.080;20.040;2023-03-18T16:51:49;16.75;;;8.98;;
54557;SDS011;40452;50.080;20.040;2023-03-18T16:54:19;17.85;;;9.57;;
54557;SDS011;40452;50.080;20.040;2023-03-18T16:56:47;15.88;;;9.05;;
54557;SDS011;40452;50.080;20.040;2023-03-18T16:59:15;18.90;;;9.68;;
54557;SDS011;40452;50.080;20.040;2023-03-18T17:01:41;19.08;;;9.35;;
54557;SDS011;40452;50.080;20.040;2023-03-18T17:04:19;15.50;;;8.98;;
54557;SDS011;40452;50.080;20.040;2023-03-18T17:06:52;16.55;;;9.45;;
54557;SDS011;40452;50.080;20.040;2023-03-18T17:09:18;17.23;;;9.05;;
54557;SDS011;40452;50.080;20.040;2023-03-18T17:11:44;19.10;;;9.88;;
54557;SDS011;40452;50.080;20.040;2023-03-18T17:14:20;17.55;;;10.20;;
54557;SDS011;40452;50.080;20.040;2023-03-18T17:17:06;15.15;;;9.10;;
54557;SDS011;40452;50.080;20.040;2023-03-18T17:19:37;15.98;;;8.98;;
54557;SDS011;40452;50.080;20.040;2023-03-18T17:22:05;16.77;;;9.30;;
54557;SDS011;40452;50.080;20.040;2023-03-18T17:24:42;16.00;;;9.38;;
54557;SDS011;40452;50.080;20.040;2023-03-18T17:27:08;16.92;;;9.73;;
54557;SDS011;40452;50.080;20.040;2023-03-18T17:29:35;15.43;;;9.70;;
54557;SDS011;40452;50.080;20.040;2023-03-18T17:32:01;18.48;;;9.75;;
54557;SDS011;40452;50.080;20.040;2023-03-18T17:34:26;17.35;;;9.65;;
54557;SDS011;40452;50.080;20.040;2023-03-18T17:36:53;18.88;;;9.93;;
54557;SDS011;40452;50.080;20.040;2023-03-18T17:39:20;16.17;;;9.95;;
54557;SDS011;40452;50.080;20.040;2023-03-18T17:41:45;17.17;;;9.77;;
54557;SDS011;40452;50.080;20.040;2023-03-18T17:44:24;18.08;;;10.35;;
54557;SDS011;40452;50.080;20.040;2023-03-18T17:46:52;15.60;;;10.70;;
54557;SDS011;40452;50.080;20.040;2023-03-18T17:49:18;16.58;;;10.95;;
54557;SDS011;40452;50.080;20.040;2023-03-18T17:51:46;17.95;;;10.60;;
54557;SDS011;40452;50.080;20.040;2023-03-18T17:54:12;18.98;;;10.60;;
54557;SDS011;40452;50.080;20.040;2023-03-18T17:56:43;18.08;;;10.88;;
54557;SDS011;40452;50.080;20.040;2023-03-18T17:59:11;18.83;;;11.60;;
54557;SDS011;40452;50.080;20.040;2023-03-18T18:01:41;19.92;;;11.43;;
54557;SDS011;40452;50.080;20.040;2023-03-18T18:04:13;18.77;;;11.73;;
54557;SDS011;40452;50.080;20.040;2023-03-18T18:06:43;22.02;;;11.93;;
54557;SDS011;40452;50.080;20.040;2023-03-18T18:09:10;18.90;;;11.23;;
54557;SDS011;40452;50.080;20.040;2023-03-18T18:11:39;19.52;;;12.10;;
54557;SDS011;40452;50.080;20.040;2023-03-18T18:14:19;20.00;;;11.65;;
54557;SDS011;40452;50.080;20.040;2023-03-18T18:16:48;18.90;;;12.30;;
54557;SDS011;40452;50.080;20.040;2023-03-18T18:19:15;20.58;;;12.48;;
54557;SDS011;40452;50.080;20.040;2023-03-18T18:21:44;24.55;;;11.90;;
54557;SDS011;40452;50.080;20.040;2023-03-18T18:24:24;21.38;;;12.23;;
54557;SDS011;40452;50.080;20.040;2023-03-18T18:26:52;17.45;;;11.48;;
54557;SDS011;40452;50.080;20.040;2023-03-18T18:29:19;18.30;;;11.38;;
54557;SDS011;40452;50.080;20.040;2023-03-18T18:31:46;21.58;;;12.38;;
54557;SDS011;40452;50.080;20.040;2023-03-18T18:34:12;19.88;;;11.73;;
54557;SDS011;40452;50.080;20.040;2023-03-18T18:36:38;19.50;;;12.40;;
54557;SDS011;40452;50.080;20.040;2023-03-18T18:39:04;20.63;;;12.32;;
54557;SDS011;40452;50.080;20.040;2023-03-18T18:41:30;17.98;;;12.00;;
54557;SDS011;40452;50.080;20.040;2023-03-18T18:43:57;20.08;;;12.73;;
54557;SDS011;40452;50.080;20.040;2023-03-18T18:46:23;21.48;;;13.52;;
54557;SDS011;40452;50.080;20.040;2023-03-18T18:48:50;23.73;;;14.10;;
54557;SDS011;40452;50.080;20.040;2023-03-18T18:51:19;21.83;;;13.38;;
54557;SDS011;40452;50.080;20.040;2023-03-18T18:53:46;23.27;;;13.50;;
54557;SDS011;40452;50.080;20.040;2023-03-18T18:56:32;20.52;;;13.27;;
54557;SDS011;40452;50.080;20.040;2023-03-18T18:58:59;22.70;;;14.10;;
54557;SDS011;40452;50.080;20.040;2023-03-18T19:01:25;20.55;;;13.80;;
54557;SDS011;40452;50.080;20.040;2023-03-18T19:03:51;21.52;;;13.70;;
54557;SDS011;40452;50.080;20.040;2023-03-18T19:06:24;24.25;;;14.00;;
54557;SDS011;40452;50.080;20.040;2023-03-18T19:08:57;27.40;;;15.73;;
54557;SDS011;40452;50.080;20.040;2023-03-18T19:12:47;28.27;;;16.40;;
54557;SDS011;40452;50.080;20.040;2023-03-18T19:15:13;28.75;;;16.92;;
54557;SDS011;40452;50.080;20.040;2023-03-18T19:17:38;26.33;;;16.05;;
54557;SDS011;40452;50.080;20.040;2023-03-18T19:20:19;27.65;;;16.10;;
54557;SDS011;40452;50.080;20.040;2023-03-18T19:22:53;28.23;;;15.85;;
54557;SDS011;40452;50.080;20.040;2023-03-18T19:25:20;26.77;;;15.43;;
54557;SDS011;40452;50.080;20.040;2023-03-18T19:27:47;31.75;;;17.13;;
54557;SDS011;40452;50.080;20.040;2023-03-18T19:30:20;24.48;;;14.25;;
54557;SDS011;40452;50.080;20.040;2023-03-18T19:32:47;23.45;;;11.98;;
54557;SDS011;40452;50.080;20.040;2023-03-18T19:35:13;17.50;;;11.48;;
54557;SDS011;40452;50.080;20.040;2023-03-18T19:37:40;20.27;;;11.75;;
54557;SDS011;40452;50.080;20.040;2023-03-18T19:40:18;19.88;;;10.93;;
54557;SDS011;40452;50.080;20.040;2023-03-18T19:42:52;16.48;;;9.15;;
54557;SDS011;40452;50.080;20.040;2023-03-18T19:45:20;16.58;;;9.40;;
54557;SDS011;40452;50.080;20.040;2023-03-18T19:47:45;15.90;;;8.35;;
54557;SDS011;40452;50.080;20.040;2023-03-18T19:50:12;16.27;;;8.32;;
54557;SDS011;40452;50.080;20.040;2023-03-18T19:52:42;17.58;;;10.68;;
54557;SDS011;40452;50.080;20.040;2023-03-18T19:55:11;21.27;;;11.35;;
54557;SDS011;40452;50.080;20.040;2023-03-18T19:57:42;22.77;;;12.75;;
54557;SDS011;40452;50.080;20.040;2023-03-18T20:00:19;20.95;;;12.45;;
54557;SDS011;40452;50.080;20.040;2023-03-18T20:02:47;22.02;;;13.52;;
54557;SDS011;40452;50.080;20.040;2023-03-18T20:05:16;23.58;;;13.63;;
54557;SDS011;40452;50.080;20.040;2023-03-18T20:07:43;23.35;;;14.57;;
54557;SDS011;40452;50.080;20.040;2023-03-18T20:10:09;26.67;;;15.00;;
54557;SDS011;40452;50.080;20.040;2023-03-18T20:12:40;24.60;;;14.25;;
